Don Miguel Hidalgo Y Costilla International Airport
MMGL : now visible

Aeroporto :











RITROVATECI SU...

 
LOGIN :

Iscrizione | Disclaimer

   EN    FR    IT 

 









Sommario :    VFR   VFR Marginale   IFR   IFR Intensivo   IFR Molto Intensivo
Visibilità : 
Base nubi : 
>= 8 km
>= 3000ft
5 / 8 km
1000 / 3000 ft
1500m / 5 km
500 / 1000 ft
800 / 1500m
200 / 500 ft
< 800m
< 200 ft
Simboli :   Temporali  Nebbia  Neve Forte  Precipitazioni Forti  Vento > 20 kt







- Altitudine del aeroporto : 5016 ft
- Codice IATA : GDL


MMGL - Don Miguel Hidalgo Y Costilla International

ULTIMO METAR :
  • 201540Z 09007KT 10SM FEW025 SCT300 22/14 A3020 RMK 8/101

METARs OBSOLETI :
  • 201452Z 11005KT 10SM SCT300 22/14 A3020 RMK SLP102 52014 907 8/001 CU
  • 201345Z 05006KT 10SM SCT300 19/14 A3018 RMK 8/001 CU

TAF TAF MMGL
Valido dal 20 a 12 ore il 21 a 18 ore UTC


201019Z 2012/2118 00000KT P6SM SCT015 BKN100 TX29/2022Z TN17/2012Z
FM201800 10010KT P6SM SCT030 SCT090
TEMPO 2021/2101 BKN090
FM210600 26004KT P6SM SCT090 BKN250
BECMG 2111/2113 04005KT
Nessun NOTAM noto per questo aeroporto.



MetMap, La meteo Aeronautica in un colpo d'occhio ! - Copyright ORBIFLY Dicembre 2007 - Disclaimer

ORBIFLY MET'MAP TEAM :

Programmazione e sviluppo : Alexandra Zaïnal
Concezione e sviluppo : Baudouin d'Aumeries
Co-Programmazione e sviluppo : Marc-Olivier Méhu
Supporto tecnico e logistico : Manuel Goepfert
Aiuto per la traduzione : Arnaldo La Scala

Contatto : metmap@orbifly.com




FONTI E CREDITI :

   NOAA       Earth
Advisory